sensor_id;sensor_type;location;lat;lon;timestamp;P1;durP1;ratioP1;P2;durP2;ratioP2
46463;SDS011;32161;48.148;-1.554;2023-09-07T00:00:35;31.23;;;6.80;;
46463;SDS011;32161;48.148;-1.554;2023-09-07T00:03:03;33.63;;;6.53;;
46463;SDS011;32161;48.148;-1.554;2023-09-07T00:05:31;26.85;;;6.07;;
46463;SDS011;32161;48.148;-1.554;2023-09-07T00:07:58;27.35;;;6.40;;
46463;SDS011;32161;48.148;-1.554;2023-09-07T00:10:26;35.85;;;5.95;;
46463;SDS011;32161;48.148;-1.554;2023-09-07T00:12:55;29.67;;;6.03;;
46463;SDS011;32161;48.148;-1.554;2023-09-07T00:15:23;28.42;;;6.28;;
46463;SDS011;32161;48.148;-1.554;2023-09-07T00:17:51;27.08;;;6.20;;
46463;SDS011;32161;48.148;-1.554;2023-09-07T00:20:19;26.52;;;5.60;;
46463;SDS011;32161;48.148;-1.554;2023-09-07T00:22:47;30.48;;;6.80;;
46463;SDS011;32161;48.148;-1.554;2023-09-07T00:25:15;26.17;;;5.85;;
46463;SDS011;32161;48.148;-1.554;2023-09-07T00:27:43;24.17;;;5.63;;
46463;SDS011;32161;48.148;-1.554;2023-09-07T00:30:12;24.60;;;6.57;;
46463;SDS011;32161;48.148;-1.554;2023-09-07T00:32:40;20.50;;;5.32;;
46463;SDS011;32161;48.148;-1.554;2023-09-07T00:35:08;32.60;;;6.78;;
46463;SDS011;32161;48.148;-1.554;2023-09-07T00:37:36;24.83;;;6.15;;
46463;SDS011;32161;48.148;-1.554;2023-09-07T00:40:05;28.08;;;5.50;;
46463;SDS011;32161;48.148;-1.554;2023-09-07T00:42:35;30.95;;;6.38;;
46463;SDS011;32161;48.148;-1.554;2023-09-07T00:45:03;28.52;;;5.18;;
46463;SDS011;32161;48.148;-1.554;2023-09-07T00:47:34;26.90;;;5.80;;
46463;SDS011;32161;48.148;-1.554;2023-09-07T00:50:02;26.10;;;5.70;;
46463;SDS011;32161;48.148;-1.554;2023-09-07T00:52:31;28.17;;;6.03;;
46463;SDS011;32161;48.148;-1.554;2023-09-07T00:54:59;26.15;;;5.72;;
46463;SDS011;32161;48.148;-1.554;2023-09-07T00:57:28;32.05;;;6.10;;
46463;SDS011;32161;48.148;-1.554;2023-09-07T00:59:55;26.55;;;5.70;;
46463;SDS011;32161;48.148;-1.554;2023-09-07T01:02:23;22.80;;;7.05;;
46463;SDS011;32161;48.148;-1.554;2023-09-07T01:04:52;28.50;;;5.43;;
46463;SDS011;32161;48.148;-1.554;2023-09-07T01:07:20;26.83;;;5.82;;
46463;SDS011;32161;48.148;-1.554;2023-09-07T01:09:51;26.00;;;6.15;;
46463;SDS011;32161;48.148;-1.554;2023-09-07T01:12:23;20.60;;;5.50;;
46463;SDS011;32161;48.148;-1.554;2023-09-07T01:14:50;22.77;;;5.00;;
46463;SDS011;32161;48.148;-1.554;2023-09-07T01:17:19;24.80;;;6.20;;
46463;SDS011;32161;48.148;-1.554;2023-09-07T01:19:48;24.52;;;5.85;;
46463;SDS011;32161;48.148;-1.554;2023-09-07T01:22:17;26.63;;;5.22;;
46463;SDS011;32161;48.148;-1.554;2023-09-07T01:24:47;30.67;;;6.72;;
46463;SDS011;32161;48.148;-1.554;2023-09-07T01:27:16;18.50;;;6.05;;
46463;SDS011;32161;48.148;-1.554;2023-09-07T01:29:44;20.48;;;6.65;;
46463;SDS011;32161;48.148;-1.554;2023-09-07T01:32:12;30.83;;;6.38;;
46463;SDS011;32161;48.148;-1.554;2023-09-07T01:34:39;19.33;;;5.70;;
46463;SDS011;32161;48.148;-1.554;2023-09-07T01:37:07;28.08;;;5.82;;
46463;SDS011;32161;48.148;-1.554;2023-09-07T01:39:36;27.67;;;6.18;;
46463;SDS011;32161;48.148;-1.554;2023-09-07T01:42:04;31.55;;;6.65;;
46463;SDS011;32161;48.148;-1.554;2023-09-07T01:44:31;21.52;;;5.45;;
46463;SDS011;32161;48.148;-1.554;2023-09-07T01:47:00;28.85;;;6.07;;
46463;SDS011;32161;48.148;-1.554;2023-09-07T01:49:27;24.70;;;5.72;;
46463;SDS011;32161;48.148;-1.554;2023-09-07T01:51:55;34.58;;;6.18;;
46463;SDS011;32161;48.148;-1.554;2023-09-07T01:54:22;21.80;;;7.00;;
46463;SDS011;32161;48.148;-1.554;2023-09-07T01:56:51;33.08;;;6.10;;
46463;SDS011;32161;48.148;-1.554;2023-09-07T01:59:19;29.30;;;6.38;;
46463;SDS011;32161;48.148;-1.554;2023-09-07T02:01:46;31.40;;;6.35;;
46463;SDS011;32161;48.148;-1.554;2023-09-07T02:04:14;26.35;;;5.97;;
46463;SDS011;32161;48.148;-1.554;2023-09-07T02:06:41;30.15;;;6.43;;
46463;SDS011;32161;48.148;-1.554;2023-09-07T02:09:09;24.17;;;5.00;;
46463;SDS011;32161;48.148;-1.554;2023-09-07T02:11:36;21.48;;;6.15;;
46463;SDS011;32161;48.148;-1.554;2023-09-07T02:14:06;18.52;;;5.15;;
46463;SDS011;32161;48.148;-1.554;2023-09-07T02:16:34;21.02;;;5.70;;
46463;SDS011;32161;48.148;-1.554;2023-09-07T02:19:02;24.95;;;5.25;;
46463;SDS011;32161;48.148;-1.554;2023-09-07T02:21:31;24.23;;;5.55;;
46463;SDS011;32161;48.148;-1.554;2023-09-07T02:23:59;22.27;;;5.60;;
46463;SDS011;32161;48.148;-1.554;2023-09-07T02:26:27;22.88;;;6.22;;
46463;SDS011;32161;48.148;-1.554;2023-09-07T02:28:54;24.13;;;5.65;;
46463;SDS011;32161;48.148;-1.554;2023-09-07T02:31:23;18.33;;;5.00;;
46463;SDS011;32161;48.148;-1.554;2023-09-07T02:33:51;23.90;;;6.65;;
46463;SDS011;32161;48.148;-1.554;2023-09-07T02:36:18;26.90;;;6.75;;
46463;SDS011;32161;48.148;-1.554;2023-09-07T02:38:46;24.30;;;6.78;;
46463;SDS011;32161;48.148;-1.554;2023-09-07T02:41:13;25.33;;;6.00;;
46463;SDS011;32161;48.148;-1.554;2023-09-07T02:43:41;22.48;;;5.80;;
46463;SDS011;32161;48.148;-1.554;2023-09-07T02:46:09;20.40;;;5.30;;
46463;SDS011;32161;48.148;-1.554;2023-09-07T02:48:37;24.13;;;5.13;;
46463;SDS011;32161;48.148;-1.554;2023-09-07T02:51:05;24.50;;;5.15;;
46463;SDS011;32161;48.148;-1.554;2023-09-07T02:53:33;17.45;;;5.13;;
46463;SDS011;32161;48.148;-1.554;2023-09-07T02:56:00;16.77;;;4.65;;
46463;SDS011;32161;48.148;-1.554;2023-09-07T02:58:29;16.60;;;4.97;;
46463;SDS011;32161;48.148;-1.554;2023-09-07T03:00:58;24.08;;;5.63;;
46463;SDS011;32161;48.148;-1.554;2023-09-07T03:03:26;16.20;;;5.00;;
46463;SDS011;32161;48.148;-1.554;2023-09-07T03:05:56;26.60;;;7.78;;
46463;SDS011;32161;48.148;-1.554;2023-09-07T03:08:23;23.63;;;5.60;;
46463;SDS011;32161;48.148;-1.554;2023-09-07T03:10:51;28.33;;;5.07;;
46463;SDS011;32161;48.148;-1.554;2023-09-07T03:13:18;20.25;;;5.20;;
46463;SDS011;32161;48.148;-1.554;2023-09-07T03:15:46;16.25;;;4.90;;
46463;SDS011;32161;48.148;-1.554;2023-09-07T03:18:13;20.60;;;5.78;;
46463;SDS011;32161;48.148;-1.554;2023-09-07T03:20:41;22.40;;;5.50;;
46463;SDS011;32161;48.148;-1.554;2023-09-07T03:23:10;21.25;;;5.00;;
46463;SDS011;32161;48.148;-1.554;2023-09-07T03:25:37;18.88;;;5.22;;
46463;SDS011;32161;48.148;-1.554;2023-09-07T03:28:05;16.42;;;4.70;;
46463;SDS011;32161;48.148;-1.554;2023-09-07T03:30:32;18.05;;;5.65;;
46463;SDS011;32161;48.148;-1.554;2023-09-07T03:33:00;21.23;;;5.47;;
46463;SDS011;32161;48.148;-1.554;2023-09-07T03:35:28;20.80;;;5.75;;
46463;SDS011;32161;48.148;-1.554;2023-09-07T03:37:56;12.30;;;4.43;;
46463;SDS011;32161;48.148;-1.554;2023-09-07T03:40:25;19.63;;;5.45;;
46463;SDS011;32161;48.148;-1.554;2023-09-07T03:42:54;12.95;;;4.28;;
46463;SDS011;32161;48.148;-1.554;2023-09-07T03:45:21;12.60;;;4.90;;
46463;SDS011;32161;48.148;-1.554;2023-09-07T03:47:49;14.18;;;4.00;;
46463;SDS011;32161;48.148;-1.554;2023-09-07T03:50:17;15.35;;;4.38;;
46463;SDS011;32161;48.148;-1.554;2023-09-07T03:52:44;18.52;;;5.15;;
46463;SDS011;32161;48.148;-1.554;2023-09-07T03:55:12;23.27;;;5.35;;
46463;SDS011;32161;48.148;-1.554;2023-09-07T03:57:41;17.83;;;4.80;;
46463;SDS011;32161;48.148;-1.554;2023-09-07T04:00:09;19.77;;;5.45;;
46463;SDS011;32161;48.148;-1.554;2023-09-07T04:02:41;18.40;;;6.00;;
46463;SDS011;32161;48.148;-1.554;2023-09-07T04:05:09;19.95;;;5.47;;
46463;SDS011;32161;48.148;-1.554;2023-09-07T04:07:36;20.10;;;5.80;;
46463;SDS011;32161;48.148;-1.554;2023-09-07T04:10:04;26.23;;;5.82;;
46463;SDS011;32161;48.148;-1.554;2023-09-07T04:12:32;20.45;;;7.60;;
46463;SDS011;32161;48.148;-1.554;2023-09-07T04:15:02;20.40;;;5.32;;
46463;SDS011;32161;48.148;-1.554;2023-09-07T04:17:31;19.42;;;4.70;;
46463;SDS011;32161;48.148;-1.554;2023-09-07T04:20:05;22.77;;;5.40;;
46463;SDS011;32161;48.148;-1.554;2023-09-07T04:22:34;21.33;;;5.45;;
46463;SDS011;32161;48.148;-1.554;2023-09-07T04:25:01;16.35;;;5.47;;
46463;SDS011;32161;48.148;-1.554;2023-09-07T04:27:30;18.98;;;7.13;;
46463;SDS011;32161;48.148;-1.554;2023-09-07T04:29:57;16.83;;;4.75;;
46463;SDS011;32161;48.148;-1.554;2023-09-07T04:32:26;17.90;;;6.00;;
46463;SDS011;32161;48.148;-1.554;2023-09-07T04:34:54;14.68;;;5.22;;
46463;SDS011;32161;48.148;-1.554;2023-09-07T04:37:24;14.13;;;4.63;;
46463;SDS011;32161;48.148;-1.554;2023-09-07T04:39:52;15.30;;;4.93;;
46463;SDS011;32161;48.148;-1.554;2023-09-07T04:42:20;19.95;;;3.92;;
46463;SDS011;32161;48.148;-1.554;2023-09-07T04:44:47;13.45;;;3.78;;
46463;SDS011;32161;48.148;-1.554;2023-09-07T04:47:15;16.02;;;4.65;;
46463;SDS011;32161;48.148;-1.554;2023-09-07T04:49:48;15.23;;;5.47;;
46463;SDS011;32161;48.148;-1.554;2023-09-07T04:52:16;17.65;;;4.90;;
46463;SDS011;32161;48.148;-1.554;2023-09-07T04:54:43;12.65;;;4.43;;
46463;SDS011;32161;48.148;-1.554;2023-09-07T04:57:12;13.23;;;4.78;;
46463;SDS011;32161;48.148;-1.554;2023-09-07T04:59:43;17.30;;;5.38;;
46463;SDS011;32161;48.148;-1.554;2023-09-07T05:02:10;17.60;;;4.50;;
46463;SDS011;32161;48.148;-1.554;2023-09-07T05:04:38;12.77;;;4.15;;
46463;SDS011;32161;48.148;-1.554;2023-09-07T05:07:07;14.23;;;4.82;;
46463;SDS011;32161;48.148;-1.554;2023-09-07T05:09:34;18.08;;;4.97;;
46463;SDS011;32161;48.148;-1.554;2023-09-07T05:12:02;8.88;;;3.90;;
46463;SDS011;32161;48.148;-1.554;2023-09-07T05:14:30;9.75;;;3.80;;
46463;SDS011;32161;48.148;-1.554;2023-09-07T05:16:58;16.52;;;5.10;;
46463;SDS011;32161;48.148;-1.554;2023-09-07T05:19:25;12.00;;;4.65;;
46463;SDS011;32161;48.148;-1.554;2023-09-07T05:21:53;19.00;;;4.57;;
46463;SDS011;32161;48.148;-1.554;2023-09-07T05:24:22;14.80;;;4.28;;
46463;SDS011;32161;48.148;-1.554;2023-09-07T05:26:50;12.77;;;4.18;;
46463;SDS011;32161;48.148;-1.554;2023-09-07T05:29:17;16.77;;;5.00;;
46463;SDS011;32161;48.148;-1.554;2023-09-07T05:31:45;16.17;;;4.50;;
46463;SDS011;32161;48.148;-1.554;2023-09-07T05:34:13;15.10;;;4.63;;
46463;SDS011;32161;48.148;-1.554;2023-09-07T05:36:40;17.85;;;4.75;;
46463;SDS011;32161;48.148;-1.554;2023-09-07T05:39:08;17.58;;;4.95;;
46463;SDS011;32161;48.148;-1.554;2023-09-07T05:41:37;15.73;;;4.55;;
46463;SDS011;32161;48.148;-1.554;2023-09-07T05:44:04;18.15;;;5.18;;
46463;SDS011;32161;48.148;-1.554;2023-09-07T05:46:32;15.13;;;4.95;;
46463;SDS011;32161;48.148;-1.554;2023-09-07T05:49:00;15.88;;;5.18;;
46463;SDS011;32161;48.148;-1.554;2023-09-07T05:51:27;10.40;;;4.68;;
46463;SDS011;32161;48.148;-1.554;2023-09-07T05:53:55;13.85;;;4.25;;
46463;SDS011;32161;48.148;-1.554;2023-09-07T05:56:22;15.25;;;5.28;;
46463;SDS011;32161;48.148;-1.554;2023-09-07T05:58:51;24.42;;;6.30;;
46463;SDS011;32161;48.148;-1.554;2023-09-07T06:01:19;14.00;;;4.97;;
46463;SDS011;32161;48.148;-1.554;2023-09-07T06:03:46;16.63;;;5.00;;
46463;SDS011;32161;48.148;-1.554;2023-09-07T06:06:14;13.80;;;5.30;;
46463;SDS011;32161;48.148;-1.554;2023-09-07T06:08:42;12.48;;;4.57;;
46463;SDS011;32161;48.148;-1.554;2023-09-07T06:11:09;18.88;;;5.50;;
46463;SDS011;32161;48.148;-1.554;2023-09-07T06:13:37;21.52;;;5.25;;
46463;SDS011;32161;48.148;-1.554;2023-09-07T06:16:06;13.02;;;5.07;;
46463;SDS011;32161;48.148;-1.554;2023-09-07T06:18:33;17.80;;;4.93;;
46463;SDS011;32161;48.148;-1.554;2023-09-07T06:21:01;11.38;;;5.03;;
46463;SDS011;32161;48.148;-1.554;2023-09-07T06:23:29;14.15;;;4.80;;
46463;SDS011;32161;48.148;-1.554;2023-09-07T06:25:57;14.07;;;5.35;;
46463;SDS011;32161;48.148;-1.554;2023-09-07T06:28:24;9.88;;;4.88;;
46463;SDS011;32161;48.148;-1.554;2023-09-07T06:30:52;10.10;;;4.65;;
46463;SDS011;32161;48.148;-1.554;2023-09-07T06:33:21;13.85;;;4.97;;
46463;SDS011;32161;48.148;-1.554;2023-09-07T06:35:48;13.20;;;5.47;;
46463;SDS011;32161;48.148;-1.554;2023-09-07T06:38:16;14.82;;;5.13;;
46463;SDS011;32161;48.148;-1.554;2023-09-07T06:40:47;16.17;;;5.32;;
46463;SDS011;32161;48.148;-1.554;2023-09-07T06:43:15;15.80;;;6.13;;
46463;SDS011;32161;48.148;-1.554;2023-09-07T06:45:42;13.68;;;4.97;;
46463;SDS011;32161;48.148;-1.554;2023-09-07T06:48:11;16.70;;;4.80;;
46463;SDS011;32161;48.148;-1.554;2023-09-07T06:50:40;18.20;;;5.18;;
46463;SDS011;32161;48.148;-1.554;2023-09-07T06:53:08;19.20;;;6.50;;
46463;SDS011;32161;48.148;-1.554;2023-09-07T06:55:35;17.25;;;5.15;;
46463;SDS011;32161;48.148;-1.554;2023-09-07T06:58:03;14.90;;;6.45;;
46463;SDS011;32161;48.148;-1.554;2023-09-07T07:00:30;20.98;;;4.97;;
46463;SDS011;32161;48.148;-1.554;2023-09-07T07:02:58;17.45;;;5.05;;
46463;SDS011;32161;48.148;-1.554;2023-09-07T07:05:25;16.35;;;5.45;;
46463;SDS011;32161;48.148;-1.554;2023-09-07T07:07:56;16.00;;;5.13;;
46463;SDS011;32161;48.148;-1.554;2023-09-07T07:10:23;13.90;;;5.38;;
46463;SDS011;32161;48.148;-1.554;2023-09-07T07:12:51;12.95;;;4.40;;
46463;SDS011;32161;48.148;-1.554;2023-09-07T07:15:19;12.90;;;4.60;;
46463;SDS011;32161;48.148;-1.554;2023-09-07T07:17:46;14.77;;;4.47;;
46463;SDS011;32161;48.148;-1.554;2023-09-07T07:20:14;12.52;;;4.55;;
46463;SDS011;32161;48.148;-1.554;2023-09-07T07:22:41;14.23;;;4.85;;
46463;SDS011;32161;48.148;-1.554;2023-09-07T07:25:10;13.15;;;5.28;;
46463;SDS011;32161;48.148;-1.554;2023-09-07T07:27:38;22.05;;;5.65;;
46463;SDS011;32161;48.148;-1.554;2023-09-07T07:30:05;17.13;;;5.18;;
46463;SDS011;32161;48.148;-1.554;2023-09-07T07:32:34;25.85;;;6.07;;
46463;SDS011;32161;48.148;-1.554;2023-09-07T07:35:01;23.52;;;5.18;;
46463;SDS011;32161;48.148;-1.554;2023-09-07T07:37:29;11.70;;;5.13;;
46463;SDS011;32161;48.148;-1.554;2023-09-07T07:39:57;16.60;;;6.20;;
46463;SDS011;32161;48.148;-1.554;2023-09-07T07:42:26;10.25;;;5.85;;
46463;SDS011;32161;48.148;-1.554;2023-09-07T07:44:54;18.77;;;5.45;;
46463;SDS011;32161;48.148;-1.554;2023-09-07T07:47:21;17.80;;;5.47;;
46463;SDS011;32161;48.148;-1.554;2023-09-07T07:49:49;17.77;;;5.03;;
46463;SDS011;32161;48.148;-1.554;2023-09-07T07:52:16;10.65;;;4.80;;
46463;SDS011;32161;48.148;-1.554;2023-09-07T07:54:44;10.13;;;4.82;;
46463;SDS011;32161;48.148;-1.554;2023-09-07T07:57:11;11.52;;;5.15;;
46463;SDS011;32161;48.148;-1.554;2023-09-07T07:59:40;14.43;;;5.30;;
46463;SDS011;32161;48.148;-1.554;2023-09-07T08:02:08;15.43;;;5.88;;
46463;SDS011;32161;48.148;-1.554;2023-09-07T08:04:35;14.82;;;5.85;;
46463;SDS011;32161;48.148;-1.554;2023-09-07T08:07:03;12.73;;;4.88;;
46463;SDS011;32161;48.148;-1.554;2023-09-07T08:09:32;17.85;;;5.38;;
46463;SDS011;32161;48.148;-1.554;2023-09-07T08:12:00;18.25;;;5.57;;
46463;SDS011;32161;48.148;-1.554;2023-09-07T08:14:28;11.50;;;4.60;;
46463;SDS011;32161;48.148;-1.554;2023-09-07T08:16:57;13.07;;;5.28;;
46463;SDS011;32161;48.148;-1.554;2023-09-07T08:19:25;13.38;;;5.32;;
46463;SDS011;32161;48.148;-1.554;2023-09-07T08:21:54;14.18;;;5.75;;
46463;SDS011;32161;48.148;-1.554;2023-09-07T08:24:22;13.43;;;5.45;;
46463;SDS011;32161;48.148;-1.554;2023-09-07T08:26:50;17.23;;;5.13;;
46463;SDS011;32161;48.148;-1.554;2023-09-07T08:29:20;13.20;;;5.38;;
46463;SDS011;32161;48.148;-1.554;2023-09-07T08:31:50;8.98;;;5.13;;
46463;SDS011;32161;48.148;-1.554;2023-09-07T08:34:19;14.38;;;5.00;;
46463;SDS011;32161;48.148;-1.554;2023-09-07T08:39:16;19.13;;;5.30;;
46463;SDS011;32161;48.148;-1.554;2023-09-07T08:41:44;12.90;;;5.13;;
46463;SDS011;32161;48.148;-1.554;2023-09-07T08:44:12;11.82;;;5.30;;
46463;SDS011;32161;48.148;-1.554;2023-09-07T08:46:44;17.27;;;5.18;;
46463;SDS011;32161;48.148;-1.554;2023-09-07T08:49:13;10.55;;;4.88;;
46463;SDS011;32161;48.148;-1.554;2023-09-07T08:51:45;13.35;;;4.97;;
46463;SDS011;32161;48.148;-1.554;2023-09-07T08:54:14;19.25;;;5.30;;
46463;SDS011;32161;48.148;-1.554;2023-09-07T08:56:43;17.98;;;4.97;;
46463;SDS011;32161;48.148;-1.554;2023-09-07T08:59:11;13.18;;;5.65;;
46463;SDS011;32161;48.148;-1.554;2023-09-07T09:01:39;12.55;;;5.00;;
46463;SDS011;32161;48.148;-1.554;2023-09-07T09:04:07;9.32;;;5.13;;
46463;SDS011;32161;48.148;-1.554;2023-09-07T09:06:34;9.95;;;5.38;;
46463;SDS011;32161;48.148;-1.554;2023-09-07T09:09:03;12.32;;;5.65;;
46463;SDS011;32161;48.148;-1.554;2023-09-07T09:11:31;16.60;;;5.75;;
46463;SDS011;32161;48.148;-1.554;2023-09-07T09:13:59;13.13;;;5.20;;
46463;SDS011;32161;48.148;-1.554;2023-09-07T09:16:31;16.40;;;5.85;;
46463;SDS011;32161;48.148;-1.554;2023-09-07T09:18:59;14.63;;;4.97;;
46463;SDS011;32161;48.148;-1.554;2023-09-07T09:21:28;11.50;;;5.38;;
46463;SDS011;32161;48.148;-1.554;2023-09-07T09:23:56;11.30;;;4.90;;
46463;SDS011;32161;48.148;-1.554;2023-09-07T09:26:26;16.25;;;5.32;;
46463;SDS011;32161;48.148;-1.554;2023-09-07T09:28:55;16.70;;;5.40;;
46463;SDS011;32161;48.148;-1.554;2023-09-07T09:31:23;10.82;;;5.43;;
46463;SDS011;32161;48.148;-1.554;2023-09-07T09:33:51;15.95;;;4.90;;
46463;SDS011;32161;48.148;-1.554;2023-09-07T09:36:19;19.42;;;6.22;;
46463;SDS011;32161;48.148;-1.554;2023-09-07T09:38:48;11.38;;;4.43;;
46463;SDS011;32161;48.148;-1.554;2023-09-07T09:43:48;9.45;;;4.40;;
46463;SDS011;32161;48.148;-1.554;2023-09-07T09:46:17;9.70;;;3.55;;
46463;SDS011;32161;48.148;-1.554;2023-09-07T09:48:45;6.88;;;3.38;;
46463;SDS011;32161;48.148;-1.554;2023-09-07T09:51:14;10.13;;;4.10;;
46463;SDS011;32161;48.148;-1.554;2023-09-07T09:53:42;15.50;;;5.05;;
46463;SDS011;32161;48.148;-1.554;2023-09-07T09:56:10;6.38;;;3.88;;
46463;SDS011;32161;48.148;-1.554;2023-09-07T09:58:38;30.88;;;5.22;;
46463;SDS011;32161;48.148;-1.554;2023-09-07T10:01:07;10.07;;;4.40;;
46463;SDS011;32161;48.148;-1.554;2023-09-07T10:03:40;13.63;;;4.55;;
46463;SDS011;32161;48.148;-1.554;2023-09-07T10:06:17;7.10;;;3.80;;
46463;SDS011;32161;48.148;-1.554;2023-09-07T10:08:55;14.93;;;4.10;;
46463;SDS011;32161;48.148;-1.554;2023-09-07T10:11:31;11.82;;;4.13;;
46463;SDS011;32161;48.148;-1.554;2023-09-07T10:14:02;14.02;;;4.00;;
46463;SDS011;32161;48.148;-1.554;2023-09-07T10:16:43;10.20;;;4.00;;
46463;SDS011;32161;48.148;-1.554;2023-09-07T10:19:15;10.88;;;3.88;;
46463;SDS011;32161;48.148;-1.554;2023-09-07T10:21:43;12.65;;;3.88;;
46463;SDS011;32161;48.148;-1.554;2023-09-07T10:24:11;11.30;;;4.00;;
46463;SDS011;32161;48.148;-1.554;2023-09-07T10:26:55;11.23;;;3.40;;
46463;SDS011;32161;48.148;-1.554;2023-09-07T10:29:25;23.33;;;3.63;;
46463;SDS011;32161;48.148;-1.554;2023-09-07T10:31:55;15.32;;;4.28;;
46463;SDS011;32161;48.148;-1.554;2023-09-07T10:34:22;9.30;;;3.88;;
46463;SDS011;32161;48.148;-1.554;2023-09-07T10:37:03;12.20;;;3.55;;
46463;SDS011;32161;48.148;-1.554;2023-09-07T10:39:32;11.03;;;3.30;;
46463;SDS011;32161;48.148;-1.554;2023-09-07T10:42:00;13.38;;;2.88;;
46463;SDS011;32161;48.148;-1.554;2023-09-07T10:44:28;17.83;;;3.90;;
46463;SDS011;32161;48.148;-1.554;2023-09-07T10:46:57;8.40;;;3.60;;
46463;SDS011;32161;48.148;-1.554;2023-09-07T10:49:26;13.02;;;4.10;;
46463;SDS011;32161;48.148;-1.554;2023-09-07T10:51:53;24.55;;;4.78;;
46463;SDS011;32161;48.148;-1.554;2023-09-07T10:54:22;11.43;;;3.67;;
46463;SDS011;32161;48.148;-1.554;2023-09-07T10:56:50;10.13;;;3.72;;
46463;SDS011;32161;48.148;-1.554;2023-09-07T10:59:22;13.85;;;3.38;;
46463;SDS011;32161;48.148;-1.554;2023-09-07T11:01:53;15.25;;;3.13;;
46463;SDS011;32161;48.148;-1.554;2023-09-07T11:04:22;13.45;;;3.80;;
46463;SDS011;32161;48.148;-1.554;2023-09-07T11:06:50;12.68;;;3.08;;
46463;SDS011;32161;48.148;-1.554;2023-09-07T11:09:19;19.10;;;3.42;;
46463;SDS011;32161;48.148;-1.554;2023-09-07T11:11:47;16.02;;;3.65;;
46463;SDS011;32161;48.148;-1.554;2023-09-07T11:14:14;10.00;;;3.00;;
46463;SDS011;32161;48.148;-1.554;2023-09-07T11:16:42;9.95;;;3.05;;
46463;SDS011;32161;48.148;-1.554;2023-09-07T11:19:09;7.85;;;3.40;;
46463;SDS011;32161;48.148;-1.554;2023-09-07T11:24:08;12.20;;;3.25;;
46463;SDS011;32161;48.148;-1.554;2023-09-07T11:26:42;6.93;;;3.08;;
46463;SDS011;32161;48.148;-1.554;2023-09-07T11:29:13;14.82;;;3.67;;
46463;SDS011;32161;48.148;-1.554;2023-09-07T11:31:41;14.65;;;4.15;;
46463;SDS011;32161;48.148;-1.554;2023-09-07T11:34:09;14.05;;;3.95;;
46463;SDS011;32161;48.148;-1.554;2023-09-07T11:36:37;13.20;;;3.13;;
46463;SDS011;32161;48.148;-1.554;2023-09-07T11:39:07;14.35;;;2.85;;
46463;SDS011;32161;48.148;-1.554;2023-09-07T11:41:37;19.38;;;3.65;;
46463;SDS011;32161;48.148;-1.554;2023-09-07T11:44:06;21.58;;;4.38;;
46463;SDS011;32161;48.148;-1.554;2023-09-07T11:46:33;14.07;;;3.53;;
46463;SDS011;32161;48.148;-1.554;2023-09-07T11:49:01;15.93;;;4.43;;
46463;SDS011;32161;48.148;-1.554;2023-09-07T11:51:30;17.08;;;3.60;;
46463;SDS011;32161;48.148;-1.554;2023-09-07T11:53:57;18.35;;;4.18;;
46463;SDS011;32161;48.148;-1.554;2023-09-07T11:56:26;18.63;;;3.38;;
46463;SDS011;32161;48.148;-1.554;2023-09-07T11:58:54;22.25;;;3.70;;
46463;SDS011;32161;48.148;-1.554;2023-09-07T12:01:21;17.98;;;3.72;;
46463;SDS011;32161;48.148;-1.554;2023-09-07T12:03:49;16.40;;;3.25;;
46463;SDS011;32161;48.148;-1.554;2023-09-07T12:06:17;16.52;;;3.30;;
46463;SDS011;32161;48.148;-1.554;2023-09-07T12:08:57;14.20;;;3.63;;
46463;SDS011;32161;48.148;-1.554;2023-09-07T12:11:27;12.05;;;3.80;;
46463;SDS011;32161;48.148;-1.554;2023-09-07T12:13:55;15.82;;;4.03;;
46463;SDS011;32161;48.148;-1.554;2023-09-07T12:16:26;14.82;;;3.70;;
46463;SDS011;32161;48.148;-1.554;2023-09-07T12:18:54;18.52;;;4.07;;
46463;SDS011;32161;48.148;-1.554;2023-09-07T12:21:22;19.00;;;3.75;;
46463;SDS011;32161;48.148;-1.554;2023-09-07T12:23:49;23.05;;;4.28;;
46463;SDS011;32161;48.148;-1.554;2023-09-07T12:26:17;16.98;;;4.32;;
46463;SDS011;32161;48.148;-1.554;2023-09-07T12:28:47;22.08;;;4.35;;
46463;SDS011;32161;48.148;-1.554;2023-09-07T12:31:15;26.95;;;4.50;;
46463;SDS011;32161;48.148;-1.554;2023-09-07T12:33:42;20.23;;;4.32;;
46463;SDS011;32161;48.148;-1.554;2023-09-07T12:36:10;23.75;;;4.75;;
46463;SDS011;32161;48.148;-1.554;2023-09-07T12:38:37;22.13;;;4.30;;
46463;SDS011;32161;48.148;-1.554;2023-09-07T12:41:05;16.80;;;4.07;;
46463;SDS011;32161;48.148;-1.554;2023-09-07T12:43:33;17.38;;;4.45;;
46463;SDS011;32161;48.148;-1.554;2023-09-07T12:46:02;20.85;;;4.28;;
46463;SDS011;32161;48.148;-1.554;2023-09-07T12:48:29;14.00;;;4.22;;
46463;SDS011;32161;48.148;-1.554;2023-09-07T12:50:57;23.42;;;4.22;;
46463;SDS011;32161;48.148;-1.554;2023-09-07T12:53:24;27.42;;;4.95;;
46463;SDS011;32161;48.148;-1.554;2023-09-07T12:55:52;18.70;;;3.75;;
46463;SDS011;32161;48.148;-1.554;2023-09-07T12:58:20;24.05;;;5.25;;
46463;SDS011;32161;48.148;-1.554;2023-09-07T13:00:48;23.27;;;5.07;;
46463;SDS011;32161;48.148;-1.554;2023-09-07T13:03:18;21.20;;;4.45;;
46463;SDS011;32161;48.148;-1.554;2023-09-07T13:05:46;22.85;;;4.60;;
46463;SDS011;32161;48.148;-1.554;2023-09-07T13:08:15;20.50;;;4.10;;
46463;SDS011;32161;48.148;-1.554;2023-09-07T13:10:42;22.45;;;5.20;;
46463;SDS011;32161;48.148;-1.554;2023-09-07T13:13:10;20.33;;;3.90;;
46463;SDS011;32161;48.148;-1.554;2023-09-07T13:15:38;19.52;;;4.95;;
46463;SDS011;32161;48.148;-1.554;2023-09-07T13:18:05;18.23;;;4.07;;
46463;SDS011;32161;48.148;-1.554;2023-09-07T13:20:34;32.35;;;4.85;;
46463;SDS011;32161;48.148;-1.554;2023-09-07T13:23:02;14.25;;;4.07;;
46463;SDS011;32161;48.148;-1.554;2023-09-07T13:25:30;27.08;;;3.92;;
46463;SDS011;32161;48.148;-1.554;2023-09-07T13:27:58;24.40;;;4.72;;
46463;SDS011;32161;48.148;-1.554;2023-09-07T13:30:26;20.40;;;4.20;;
46463;SDS011;32161;48.148;-1.554;2023-09-07T13:32:53;25.08;;;4.20;;
46463;SDS011;32161;48.148;-1.554;2023-09-07T13:35:21;20.73;;;4.53;;
46463;SDS011;32161;48.148;-1.554;2023-09-07T13:37:50;16.83;;;4.80;;
46463;SDS011;32161;48.148;-1.554;2023-09-07T13:40:18;20.50;;;4.78;;
46463;SDS011;32161;48.148;-1.554;2023-09-07T13:42:49;23.48;;;4.43;;
46463;SDS011;32161;48.148;-1.554;2023-09-07T13:45:16;23.48;;;4.00;;
46463;SDS011;32161;48.148;-1.554;2023-09-07T13:47:44;19.58;;;4.47;;
46463;SDS011;32161;48.148;-1.554;2023-09-07T13:50:11;18.77;;;4.50;;
46463;SDS011;32161;48.148;-1.554;2023-09-07T13:52:39;12.93;;;3.55;;
46463;SDS011;32161;48.148;-1.554;2023-09-07T13:55:08;13.82;;;3.90;;
46463;SDS011;32161;48.148;-1.554;2023-09-07T13:57:36;11.90;;;3.35;;
46463;SDS011;32161;48.148;-1.554;2023-09-07T14:00:04;12.05;;;3.38;;
46463;SDS011;32161;48.148;-1.554;2023-09-07T14:02:32;10.02;;;2.80;;
46463;SDS011;32161;48.148;-1.554;2023-09-07T14:05:00;10.95;;;3.22;;
46463;SDS011;32161;48.148;-1.554;2023-09-07T14:07:28;15.10;;;3.53;;
46463;SDS011;32161;48.148;-1.554;2023-09-07T14:09:55;18.38;;;3.45;;
46463;SDS011;32161;48.148;-1.554;2023-09-07T14:12:24;16.42;;;2.75;;
46463;SDS011;32161;48.148;-1.554;2023-09-07T14:14:52;14.45;;;3.40;;
46463;SDS011;32161;48.148;-1.554;2023-09-07T14:17:19;11.20;;;3.33;;
46463;SDS011;32161;48.148;-1.554;2023-09-07T14:19:47;18.20;;;3.63;;
46463;SDS011;32161;48.148;-1.554;2023-09-07T14:22:15;19.23;;;4.65;;
46463;SDS011;32161;48.148;-1.554;2023-09-07T14:24:42;17.08;;;4.10;;
46463;SDS011;32161;48.148;-1.554;2023-09-07T14:27:10;9.52;;;3.22;;
46463;SDS011;32161;48.148;-1.554;2023-09-07T14:29:39;14.82;;;3.17;;
46463;SDS011;32161;48.148;-1.554;2023-09-07T14:32:06;11.10;;;3.78;;
46463;SDS011;32161;48.148;-1.554;2023-09-07T14:34:35;16.52;;;4.43;;